sensor_id;sensor_type;location;lat;lon;timestamp;temperature;humidity
39919;DHT22;25589;51.552;13.424;2023-07-31T00:01:59;16.90;99.90
39919;DHT22;25589;51.552;13.424;2023-07-31T00:04:25;16.60;99.90
39919;DHT22;25589;51.552;13.424;2023-07-31T00:06:51;16.90;99.90
39919;DHT22;25589;51.552;13.424;2023-07-31T00:09:16;16.80;99.90
39919;DHT22;25589;51.552;13.424;2023-07-31T00:11:42;16.80;99.90
39919;DHT22;25589;51.552;13.424;2023-07-31T00:14:07;16.70;99.90
39919;DHT22;25589;51.552;13.424;2023-07-31T00:16:33;16.60;99.90
39919;DHT22;25589;51.552;13.424;2023-07-31T00:18:59;16.60;99.90
39919;DHT22;25589;51.552;13.424;2023-07-31T00:21:24;16.70;99.90
39919;DHT22;25589;51.552;13.424;2023-07-31T00:23:50;16.60;99.90
39919;DHT22;25589;51.552;13.424;2023-07-31T00:26:15;16.60;99.90
39919;DHT22;25589;51.552;13.424;2023-07-31T00:28:41;16.70;99.90
39919;DHT22;25589;51.552;13.424;2023-07-31T00:31:07;16.90;99.90
39919;DHT22;25589;51.552;13.424;2023-07-31T00:33:35;16.40;99.90
39919;DHT22;25589;51.552;13.424;2023-07-31T00:36:02;16.60;99.90
39919;DHT22;25589;51.552;13.424;2023-07-31T00:38:28;16.60;99.90
39919;DHT22;25589;51.552;13.424;2023-07-31T00:40:53;16.30;99.90
39919;DHT22;25589;51.552;13.424;2023-07-31T00:43:19;16.40;99.90
39919;DHT22;25589;51.552;13.424;2023-07-31T00:45:44;16.60;99.90
39919;DHT22;25589;51.552;13.424;2023-07-31T00:48:10;16.60;99.90
39919;DHT22;25589;51.552;13.424;2023-07-31T00:50:36;16.60;99.90
39919;DHT22;25589;51.552;13.424;2023-07-31T00:53:03;16.60;99.90
39919;DHT22;25589;51.552;13.424;2023-07-31T00:55:29;16.50;99.90
39919;DHT22;25589;51.552;13.424;2023-07-31T00:57:55;16.60;99.90
39919;DHT22;25589;51.552;13.424;2023-07-31T01:00:21;16.60;99.90
39919;DHT22;25589;51.552;13.424;2023-07-31T01:02:48;16.70;99.90
39919;DHT22;25589;51.552;13.424;2023-07-31T01:05:14;17.00;99.90
39919;DHT22;25589;51.552;13.424;2023-07-31T01:08:08;16.60;99.90
39919;DHT22;25589;51.552;13.424;2023-07-31T01:10:48;16.60;99.90
39919;DHT22;25589;51.552;13.424;2023-07-31T01:13:17;16.60;99.90
39919;DHT22;25589;51.552;13.424;2023-07-31T01:15:43;17.00;99.90
39919;DHT22;25589;51.552;13.424;2023-07-31T01:18:08;16.40;99.90
39919;DHT22;25589;51.552;13.424;2023-07-31T01:20:37;16.50;99.90
39919;DHT22;25589;51.552;13.424;2023-07-31T01:26:12;16.60;99.90
39919;DHT22;25589;51.552;13.424;2023-07-31T01:31:24;16.50;99.90
39919;DHT22;25589;51.552;13.424;2023-07-31T01:33:51;16.50;99.90
39919;DHT22;25589;51.552;13.424;2023-07-31T01:36:18;16.50;99.90
39919;DHT22;25589;51.552;13.424;2023-07-31T01:38:43;16.50;99.90
39919;DHT22;25589;51.552;13.424;2023-07-31T01:41:09;16.50;99.90
39919;DHT22;25589;51.552;13.424;2023-07-31T01:43:34;16.40;99.90
39919;DHT22;25589;51.552;13.424;2023-07-31T01:46:00;16.50;99.90
39919;DHT22;25589;51.552;13.424;2023-07-31T01:48:25;16.50;99.90
39919;DHT22;25589;51.552;13.424;2023-07-31T01:50:51;16.50;99.90
39919;DHT22;25589;51.552;13.424;2023-07-31T01:53:17;16.50;99.90
39919;DHT22;25589;51.552;13.424;2023-07-31T01:55:43;16.50;99.90
39919;DHT22;25589;51.552;13.424;2023-07-31T01:58:09;16.60;99.90
39919;DHT22;25589;51.552;13.424;2023-07-31T02:00:35;16.50;99.90
39919;DHT22;25589;51.552;13.424;2023-07-31T02:03:00;16.60;99.90
39919;DHT22;25589;51.552;13.424;2023-07-31T02:05:26;16.60;99.90
39919;DHT22;25589;51.552;13.424;2023-07-31T02:07:52;17.00;99.90
39919;DHT22;25589;51.552;13.424;2023-07-31T02:10:17;16.60;99.90
39919;DHT22;25589;51.552;13.424;2023-07-31T02:12:43;16.60;99.90
39919;DHT22;25589;51.552;13.424;2023-07-31T02:15:09;16.90;99.90
39919;DHT22;25589;51.552;13.424;2023-07-31T02:17:35;16.60;99.90
39919;DHT22;25589;51.552;13.424;2023-07-31T02:20:00;16.60;99.90
39919;DHT22;25589;51.552;13.424;2023-07-31T02:22:26;16.50;99.90
39919;DHT22;25589;51.552;13.424;2023-07-31T02:24:51;17.00;99.90
39919;DHT22;25589;51.552;13.424;2023-07-31T02:27:17;16.90;99.90
39919;DHT22;25589;51.552;13.424;2023-07-31T02:29:44;16.60;99.90
39919;DHT22;25589;51.552;13.424;2023-07-31T02:32:11;16.60;99.90
39919;DHT22;25589;51.552;13.424;2023-07-31T02:34:37;16.60;99.90
39919;DHT22;25589;51.552;13.424;2023-07-31T02:37:03;16.40;99.90
39919;DHT22;25589;51.552;13.424;2023-07-31T02:39:28;16.60;99.90
39919;DHT22;25589;51.552;13.424;2023-07-31T02:41:54;16.60;99.90
39919;DHT22;25589;51.552;13.424;2023-07-31T02:44:19;16.60;99.90
39919;DHT22;25589;51.552;13.424;2023-07-31T02:46:46;17.10;99.90
39919;DHT22;25589;51.552;13.424;2023-07-31T02:49:12;16.30;99.90
39919;DHT22;25589;51.552;13.424;2023-07-31T02:51:37;16.60;99.90
39919;DHT22;25589;51.552;13.424;2023-07-31T02:54:03;16.60;99.90
39919;DHT22;25589;51.552;13.424;2023-07-31T02:56:29;16.60;99.90
39919;DHT22;25589;51.552;13.424;2023-07-31T02:58:54;16.70;99.90
39919;DHT22;25589;51.552;13.424;2023-07-31T03:03:46;16.60;99.90
39919;DHT22;25589;51.552;13.424;2023-07-31T03:06:11;16.60;99.90
39919;DHT22;25589;51.552;13.424;2023-07-31T03:08:37;16.70;99.90
39919;DHT22;25589;51.552;13.424;2023-07-31T03:11:02;16.60;99.90
39919;DHT22;25589;51.552;13.424;2023-07-31T03:13:28;16.70;99.90
39919;DHT22;25589;51.552;13.424;2023-07-31T03:15:53;16.70;99.90
39919;DHT22;25589;51.552;13.424;2023-07-31T03:20:45;16.60;99.90
39919;DHT22;25589;51.552;13.424;2023-07-31T03:23:11;16.30;99.90
39919;DHT22;25589;51.552;13.424;2023-07-31T03:25:36;16.60;99.90
39919;DHT22;25589;51.552;13.424;2023-07-31T03:28:02;16.80;99.90
39919;DHT22;25589;51.552;13.424;2023-07-31T03:30:29;16.70;99.90
39919;DHT22;25589;51.552;13.424;2023-07-31T03:32:54;16.50;99.90
39919;DHT22;25589;51.552;13.424;2023-07-31T03:35:20;16.60;99.90
39919;DHT22;25589;51.552;13.424;2023-07-31T03:37:45;16.50;99.90
39919;DHT22;25589;51.552;13.424;2023-07-31T03:40:11;16.30;99.90
39919;DHT22;25589;51.552;13.424;2023-07-31T03:42:37;16.40;99.90
39919;DHT22;25589;51.552;13.424;2023-07-31T03:45:02;16.50;99.90
39919;DHT22;25589;51.552;13.424;2023-07-31T03:47:29;16.00;99.90
39919;DHT22;25589;51.552;13.424;2023-07-31T03:49:54;16.30;99.90
39919;DHT22;25589;51.552;13.424;2023-07-31T03:52:21;16.40;99.90
39919;DHT22;25589;51.552;13.424;2023-07-31T03:54:46;16.50;99.90
39919;DHT22;25589;51.552;13.424;2023-07-31T03:57:12;16.40;99.90
39919;DHT22;25589;51.552;13.424;2023-07-31T03:59:37;16.40;99.90
39919;DHT22;25589;51.552;13.424;2023-07-31T04:02:05;16.40;99.90
39919;DHT22;25589;51.552;13.424;2023-07-31T04:04:31;16.40;99.90
39919;DHT22;25589;51.552;13.424;2023-07-31T04:06:57;16.30;99.90
39919;DHT22;25589;51.552;13.424;2023-07-31T04:09:22;16.50;99.90
39919;DHT22;25589;51.552;13.424;2023-07-31T04:11:48;16.40;99.90
39919;DHT22;25589;51.552;13.424;2023-07-31T04:16:39;16.40;99.90
39919;DHT22;25589;51.552;13.424;2023-07-31T04:19:05;16.40;99.90
39919;DHT22;25589;51.552;13.424;2023-07-31T04:21:30;16.60;99.90
39919;DHT22;25589;51.552;13.424;2023-07-31T04:23:56;16.40;99.90
39919;DHT22;25589;51.552;13.424;2023-07-31T04:26:22;16.20;99.90
39919;DHT22;25589;51.552;13.424;2023-07-31T04:28:47;16.20;99.90
39919;DHT22;25589;51.552;13.424;2023-07-31T04:31:13;16.40;99.90
39919;DHT22;25589;51.552;13.424;2023-07-31T04:33:38;16.40;99.90
39919;DHT22;25589;51.552;13.424;2023-07-31T04:36:05;16.30;99.90
39919;DHT22;25589;51.552;13.424;2023-07-31T04:38:30;16.40;99.90
39919;DHT22;25589;51.552;13.424;2023-07-31T04:40:56;16.40;99.90
39919;DHT22;25589;51.552;13.424;2023-07-31T04:43:21;16.90;99.90
39919;DHT22;25589;51.552;13.424;2023-07-31T04:45:47;16.40;99.90
39919;DHT22;25589;51.552;13.424;2023-07-31T04:48:13;16.40;99.90
39919;DHT22;25589;51.552;13.424;2023-07-31T04:50:39;16.90;99.90
39919;DHT22;25589;51.552;13.424;2023-07-31T04:53:05;16.50;99.90
39919;DHT22;25589;51.552;13.424;2023-07-31T04:55:30;16.60;99.90
39919;DHT22;25589;51.552;13.424;2023-07-31T04:57:57;16.70;99.90
39919;DHT22;25589;51.552;13.424;2023-07-31T05:00:23;16.50;99.90
39919;DHT22;25589;51.552;13.424;2023-07-31T05:02:48;16.80;99.90
39919;DHT22;25589;51.552;13.424;2023-07-31T05:05:14;16.60;99.90
39919;DHT22;25589;51.552;13.424;2023-07-31T05:07:39;16.70;99.90
39919;DHT22;25589;51.552;13.424;2023-07-31T05:10:05;16.80;99.90
39919;DHT22;25589;51.552;13.424;2023-07-31T05:12:31;16.80;99.90
39919;DHT22;25589;51.552;13.424;2023-07-31T05:14:56;16.80;99.90
39919;DHT22;25589;51.552;13.424;2023-07-31T05:17:22;16.80;99.90
39919;DHT22;25589;51.552;13.424;2023-07-31T05:19:47;16.90;99.90
39919;DHT22;25589;51.552;13.424;2023-07-31T05:22:13;16.90;99.90
39919;DHT22;25589;51.552;13.424;2023-07-31T05:24:38;16.90;99.90
39919;DHT22;25589;51.552;13.424;2023-07-31T05:27:04;16.90;99.90
39919;DHT22;25589;51.552;13.424;2023-07-31T05:29:30;16.90;99.90
39919;DHT22;25589;51.552;13.424;2023-07-31T05:31:55;17.00;99.90
39919;DHT22;25589;51.552;13.424;2023-07-31T05:34:21;17.10;99.90
39919;DHT22;25589;51.552;13.424;2023-07-31T05:36:46;17.00;99.90
39919;DHT22;25589;51.552;13.424;2023-07-31T05:39:12;17.00;99.90
39919;DHT22;25589;51.552;13.424;2023-07-31T05:41:38;17.00;99.90
39919;DHT22;25589;51.552;13.424;2023-07-31T05:44:03;17.00;99.90
39919;DHT22;25589;51.552;13.424;2023-07-31T05:46:29;17.00;99.90
39919;DHT22;25589;51.552;13.424;2023-07-31T05:48:56;16.80;99.90
39919;DHT22;25589;51.552;13.424;2023-07-31T05:51:21;17.30;99.90
39919;DHT22;25589;51.552;13.424;2023-07-31T05:53:47;16.90;99.90
39919;DHT22;25589;51.552;13.424;2023-07-31T05:56:13;16.90;99.90
39919;DHT22;25589;51.552;13.424;2023-07-31T05:58:38;16.90;99.90
39919;DHT22;25589;51.552;13.424;2023-07-31T06:01:04;16.90;99.90
39919;DHT22;25589;51.552;13.424;2023-07-31T06:03:29;16.90;99.90
39919;DHT22;25589;51.552;13.424;2023-07-31T06:05:56;16.90;99.90
39919;DHT22;25589;51.552;13.424;2023-07-31T06:08:21;16.90;99.90
39919;DHT22;25589;51.552;13.424;2023-07-31T06:10:47;16.80;99.90
39919;DHT22;25589;51.552;13.424;2023-07-31T06:13:12;16.70;99.90
39919;DHT22;25589;51.552;13.424;2023-07-31T06:15:38;16.90;99.90
39919;DHT22;25589;51.552;13.424;2023-07-31T06:18:03;16.80;99.90
39919;DHT22;25589;51.552;13.424;2023-07-31T06:20:31;17.40;99.90
39919;DHT22;25589;51.552;13.424;2023-07-31T06:22:56;16.80;99.90
39919;DHT22;25589;51.552;13.424;2023-07-31T06:25:22;16.80;99.90
39919;DHT22;25589;51.552;13.424;2023-07-31T06:27:48;16.70;99.90
39919;DHT22;25589;51.552;13.424;2023-07-31T06:30:13;16.80;99.90
39919;DHT22;25589;51.552;13.424;2023-07-31T06:32:39;16.80;99.90
39919;DHT22;25589;51.552;13.424;2023-07-31T06:35:06;16.80;99.90
39919;DHT22;25589;51.552;13.424;2023-07-31T06:37:32;16.80;99.90
39919;DHT22;25589;51.552;13.424;2023-07-31T06:39:57;16.90;99.90
39919;DHT22;25589;51.552;13.424;2023-07-31T06:42:23;17.20;99.90
39919;DHT22;25589;51.552;13.424;2023-07-31T06:44:49;17.10;99.90
39919;DHT22;25589;51.552;13.424;2023-07-31T06:47:14;16.80;99.90
39919;DHT22;25589;51.552;13.424;2023-07-31T06:49:40;16.90;99.90
39919;DHT22;25589;51.552;13.424;2023-07-31T06:52:06;16.90;99.90
39919;DHT22;25589;51.552;13.424;2023-07-31T06:54:31;16.90;99.90
39919;DHT22;25589;51.552;13.424;2023-07-31T06:56:57;17.00;99.90
39919;DHT22;25589;51.552;13.424;2023-07-31T06:59:23;17.00;99.90
39919;DHT22;25589;51.552;13.424;2023-07-31T07:01:48;17.10;99.90
39919;DHT22;25589;51.552;13.424;2023-07-31T07:04:14;16.80;99.90
39919;DHT22;25589;51.552;13.424;2023-07-31T07:06:40;17.00;99.90
39919;DHT22;25589;51.552;13.424;2023-07-31T07:09:06;17.10;99.90
39919;DHT22;25589;51.552;13.424;2023-07-31T07:11:33;17.10;99.90
39919;DHT22;25589;51.552;13.424;2023-07-31T07:13:59;17.10;99.90
39919;DHT22;25589;51.552;13.424;2023-07-31T07:16:25;17.20;99.90
39919;DHT22;25589;51.552;13.424;2023-07-31T07:18:51;17.20;99.90
39919;DHT22;25589;51.552;13.424;2023-07-31T07:21:17;17.10;99.90
39919;DHT22;25589;51.552;13.424;2023-07-31T07:23:43;17.60;99.90
39919;DHT22;25589;51.552;13.424;2023-07-31T07:26:08;17.50;99.90
39919;DHT22;25589;51.552;13.424;2023-07-31T07:28:34;17.40;99.90
39919;DHT22;25589;51.552;13.424;2023-07-31T07:31:00;17.40;99.90
39919;DHT22;25589;51.552;13.424;2023-07-31T07:33:25;17.40;99.90
39919;DHT22;25589;51.552;13.424;2023-07-31T07:35:51;17.70;99.90
39919;DHT22;25589;51.552;13.424;2023-07-31T07:38:17;17.90;99.90
39919;DHT22;25589;51.552;13.424;2023-07-31T07:40:44;18.00;99.90
39919;DHT22;25589;51.552;13.424;2023-07-31T07:43:12;18.10;99.90
39919;DHT22;25589;51.552;13.424;2023-07-31T07:45:37;17.70;99.90
39919;DHT22;25589;51.552;13.424;2023-07-31T07:48:03;17.80;99.90
39919;DHT22;25589;51.552;13.424;2023-07-31T07:50:29;17.90;99.90
39919;DHT22;25589;51.552;13.424;2023-07-31T07:52:54;17.60;99.90
39919;DHT22;25589;51.552;13.424;2023-07-31T07:55:20;17.90;99.90
39919;DHT22;25589;51.552;13.424;2023-07-31T07:57:45;17.90;99.90
39919;DHT22;25589;51.552;13.424;2023-07-31T08:00:12;18.00;99.90
39919;DHT22;25589;51.552;13.424;2023-07-31T08:02:41;18.10;99.90
39919;DHT22;25589;51.552;13.424;2023-07-31T08:05:07;18.10;99.90
39919;DHT22;25589;51.552;13.424;2023-07-31T08:07:33;18.20;99.90
39919;DHT22;25589;51.552;13.424;2023-07-31T08:09:59;18.10;99.90
39919;DHT22;25589;51.552;13.424;2023-07-31T08:12:24;18.10;99.90
39919;DHT22;25589;51.552;13.424;2023-07-31T08:14:50;18.20;99.90
39919;DHT22;25589;51.552;13.424;2023-07-31T08:17:15;18.30;99.90
39919;DHT22;25589;51.552;13.424;2023-07-31T08:19:41;18.30;99.90
39919;DHT22;25589;51.552;13.424;2023-07-31T08:22:06;18.30;99.90
39919;DHT22;25589;51.552;13.424;2023-07-31T08:24:32;18.40;99.90
39919;DHT22;25589;51.552;13.424;2023-07-31T08:26:59;18.40;99.90
39919;DHT22;25589;51.552;13.424;2023-07-31T08:29:25;18.50;99.90
39919;DHT22;25589;51.552;13.424;2023-07-31T08:31:50;18.60;99.90
39919;DHT22;25589;51.552;13.424;2023-07-31T08:34:16;18.50;99.90
39919;DHT22;25589;51.552;13.424;2023-07-31T08:36:42;18.50;99.90
39919;DHT22;25589;51.552;13.424;2023-07-31T08:39:07;18.50;99.90
39919;DHT22;25589;51.552;13.424;2023-07-31T08:41:38;18.60;99.90
39919;DHT22;25589;51.552;13.424;2023-07-31T08:44:04;18.60;99.90
39919;DHT22;25589;51.552;13.424;2023-07-31T08:46:30;18.60;99.90
39919;DHT22;25589;51.552;13.424;2023-07-31T08:48:57;18.70;99.90
39919;DHT22;25589;51.552;13.424;2023-07-31T08:51:25;18.50;99.90
39919;DHT22;25589;51.552;13.424;2023-07-31T08:53:53;18.70;99.90
39919;DHT22;25589;51.552;13.424;2023-07-31T08:56:18;18.90;99.90
39919;DHT22;25589;51.552;13.424;2023-07-31T08:58:46;19.00;99.90
39919;DHT22;25589;51.552;13.424;2023-07-31T09:01:13;19.00;99.90
39919;DHT22;25589;51.552;13.424;2023-07-31T09:03:40;19.10;99.90
39919;DHT22;25589;51.552;13.424;2023-07-31T09:06:07;19.20;99.90
39919;DHT22;25589;51.552;13.424;2023-07-31T09:08:33;19.30;99.90
39919;DHT22;25589;51.552;13.424;2023-07-31T09:11:00;19.30;99.90
39919;DHT22;25589;51.552;13.424;2023-07-31T09:13:29;19.40;99.90
39919;DHT22;25589;51.552;13.424;2023-07-31T09:15:55;19.50;99.90
39919;DHT22;25589;51.552;13.424;2023-07-31T09:18:21;19.50;99.90
39919;DHT22;25589;51.552;13.424;2023-07-31T09:21:01;19.50;99.90
39919;DHT22;25589;51.552;13.424;2023-07-31T09:23:40;19.50;99.90
39919;DHT22;25589;51.552;13.424;2023-07-31T09:26:06;19.50;99.90
39919;DHT22;25589;51.552;13.424;2023-07-31T09:28:32;19.30;99.90
39919;DHT22;25589;51.552;13.424;2023-07-31T09:30:57;19.30;99.90
39919;DHT22;25589;51.552;13.424;2023-07-31T09:33:23;19.30;99.90
39919;DHT22;25589;51.552;13.424;2023-07-31T09:35:48;19.20;99.90
39919;DHT22;25589;51.552;13.424;2023-07-31T09:38:14;19.30;99.90
39919;DHT22;25589;51.552;13.424;2023-07-31T09:40:45;19.00;99.90
39919;DHT22;25589;51.552;13.424;2023-07-31T09:43:13;19.20;99.90
39919;DHT22;25589;51.552;13.424;2023-07-31T09:45:43;19.00;99.90
39919;DHT22;25589;51.552;13.424;2023-07-31T09:48:10;19.20;99.90
39919;DHT22;25589;51.552;13.424;2023-07-31T09:50:41;19.30;99.90
39919;DHT22;25589;51.552;13.424;2023-07-31T09:53:07;19.20;99.90
39919;DHT22;25589;51.552;13.424;2023-07-31T09:55:34;19.30;99.90
39919;DHT22;25589;51.552;13.424;2023-07-31T09:58:04;19.50;99.90
39919;DHT22;25589;51.552;13.424;2023-07-31T10:00:30;19.40;99.90
39919;DHT22;25589;51.552;13.424;2023-07-31T10:02:59;19.30;99.90
39919;DHT22;25589;51.552;13.424;2023-07-31T10:05:40;19.30;99.90
39919;DHT22;25589;51.552;13.424;2023-07-31T10:08:09;19.10;99.90
39919;DHT22;25589;51.552;13.424;2023-07-31T10:10:41;19.40;99.90
39919;DHT22;25589;51.552;13.424;2023-07-31T10:13:08;19.40;99.90
39919;DHT22;25589;51.552;13.424;2023-07-31T10:15:34;19.60;99.90
39919;DHT22;25589;51.552;13.424;2023-07-31T10:18:01;19.40;99.90
39919;DHT22;25589;51.552;13.424;2023-07-31T10:20:27;19.50;99.90
39919;DHT22;25589;51.552;13.424;2023-07-31T10:22:57;19.50;99.90
39919;DHT22;25589;51.552;13.424;2023-07-31T10:25:26;19.50;99.90
39919;DHT22;25589;51.552;13.424;2023-07-31T10:27:52;19.60;99.90
39919;DHT22;25589;51.552;13.424;2023-07-31T10:30:21;19.70;99.90
39919;DHT22;25589;51.552;13.424;2023-07-31T10:32:48;19.90;99.90
39919;DHT22;25589;51.552;13.424;2023-07-31T10:35:16;19.80;99.90
39919;DHT22;25589;51.552;13.424;2023-07-31T10:37:43;20.00;99.90
39919;DHT22;25589;51.552;13.424;2023-07-31T10:40:19;20.00;99.90
39919;DHT22;25589;51.552;13.424;2023-07-31T10:42:57;20.00;99.90
39919;DHT22;25589;51.552;13.424;2023-07-31T10:45:33;20.10;99.90
39919;DHT22;25589;51.552;13.424;2023-07-31T10:48:06;20.20;99.90
39919;DHT22;25589;51.552;13.424;2023-07-31T10:50:36;20.20;99.90
39919;DHT22;25589;51.552;13.424;2023-07-31T10:53:02;20.40;99.90
39919;DHT22;25589;51.552;13.424;2023-07-31T10:55:30;20.40;99.90
39919;DHT22;25589;51.552;13.424;2023-07-31T10:58:10;20.50;99.90
39919;DHT22;25589;51.552;13.424;2023-07-31T11:00:41;20.50;99.90
39919;DHT22;25589;51.552;13.424;2023-07-31T11:03:15;20.60;99.90
39919;DHT22;25589;51.552;13.424;2023-07-31T11:08:22;20.60;99.90
39919;DHT22;25589;51.552;13.424;2023-07-31T11:10:50;20.60;99.90
39919;DHT22;25589;51.552;13.424;2023-07-31T11:13:16;20.90;99.90
39919;DHT22;25589;51.552;13.424;2023-07-31T11:15:42;20.90;99.90
39919;DHT22;25589;51.552;13.424;2023-07-31T11:18:07;20.90;99.90
39919;DHT22;25589;51.552;13.424;2023-07-31T11:20:37;20.90;99.90
39919;DHT22;25589;51.552;13.424;2023-07-31T11:23:05;20.90;99.90
39919;DHT22;25589;51.552;13.424;2023-07-31T11:25:32;20.90;99.90
39919;DHT22;25589;51.552;13.424;2023-07-31T11:28:03;20.80;99.90
39919;DHT22;25589;51.552;13.424;2023-07-31T11:30:29;20.80;99.90
39919;DHT22;25589;51.552;13.424;2023-07-31T11:32:55;20.70;99.90
39919;DHT22;25589;51.552;13.424;2023-07-31T11:35:21;20.70;99.90
39919;DHT22;25589;51.552;13.424;2023-07-31T11:37:47;20.70;99.90
39919;DHT22;25589;51.552;13.424;2023-07-31T11:40:14;20.70;99.90
39919;DHT22;25589;51.552;13.424;2023-07-31T11:42:40;20.70;99.90
39919;DHT22;25589;51.552;13.424;2023-07-31T11:45:09;20.70;99.90
39919;DHT22;25589;51.552;13.424;2023-07-31T11:47:37;20.80;99.90
39919;DHT22;25589;51.552;13.424;2023-07-31T11:50:04;20.90;99.90
39919;DHT22;25589;51.552;13.424;2023-07-31T11:52:33;20.90;99.90
39919;DHT22;25589;51.552;13.424;2023-07-31T11:55:00;20.90;99.90
39919;DHT22;25589;51.552;13.424;2023-07-31T11:57:26;20.90;99.90
39919;DHT22;25589;51.552;13.424;2023-07-31T11:59:53;21.00;99.90
39919;DHT22;25589;51.552;13.424;2023-07-31T12:02:20;21.20;99.90
39919;DHT22;25589;51.552;13.424;2023-07-31T12:04:47;21.30;99.90
39919;DHT22;25589;51.552;13.424;2023-07-31T12:07:13;21.30;99.90
39919;DHT22;25589;51.552;13.424;2023-07-31T12:09:38;21.70;99.90
39919;DHT22;25589;51.552;13.424;2023-07-31T12:12:08;21.30;99.90
39919;DHT22;25589;51.552;13.424;2023-07-31T12:14:34;21.50;99.90
39919;DHT22;25589;51.552;13.424;2023-07-31T12:17:05;21.50;99.90
39919;DHT22;25589;51.552;13.424;2023-07-31T12:19:32;21.60;99.90
39919;DHT22;25589;51.552;13.424;2023-07-31T12:22:01;21.70;99.90
39919;DHT22;25589;51.552;13.424;2023-07-31T12:24:27;21.70;99.90
39919;DHT22;25589;51.552;13.424;2023-07-31T12:26:52;21.90;99.90
39919;DHT22;25589;51.552;13.424;2023-07-31T12:29:18;21.80;99.90
39919;DHT22;25589;51.552;13.424;2023-07-31T12:31:44;21.80;99.90
39919;DHT22;25589;51.552;13.424;2023-07-31T12:34:20;21.70;99.90
39919;DHT22;25589;51.552;13.424;2023-07-31T12:36:46;21.70;99.90
39919;DHT22;25589;51.552;13.424;2023-07-31T12:39:14;21.60;99.90
39919;DHT22;25589;51.552;13.424;2023-07-31T12:41:40;21.60;99.90
39919;DHT22;25589;51.552;13.424;2023-07-31T12:44:06;21.60;99.90
39919;DHT22;25589;51.552;13.424;2023-07-31T12:46:31;21.60;99.90
39919;DHT22;25589;51.552;13.424;2023-07-31T12:48:57;21.50;99.90
39919;DHT22;25589;51.552;13.424;2023-07-31T12:51:22;21.50;99.90
39919;DHT22;25589;51.552;13.424;2023-07-31T12:53:48;21.60;99.90
39919;DHT22;25589;51.552;13.424;2023-07-31T12:56:14;21.70;99.90
39919;DHT22;25589;51.552;13.424;2023-07-31T12:58:39;21.70;99.90
39919;DHT22;25589;51.552;13.424;2023-07-31T13:01:05;21.80;99.90
39919;DHT22;25589;51.552;13.424;2023-07-31T13:03:31;21.80;99.90
39919;DHT22;25589;51.552;13.424;2023-07-31T13:05:57;21.80;99.90
39919;DHT22;25589;51.552;13.424;2023-07-31T13:08:22;21.90;99.90
39919;DHT22;25589;51.552;13.424;2023-07-31T13:10:48;22.10;99.90
39919;DHT22;25589;51.552;13.424;2023-07-31T13:13:13;22.40;99.90
39919;DHT22;25589;51.552;13.424;2023-07-31T13:15:39;22.60;99.90
39919;DHT22;25589;51.552;13.424;2023-07-31T13:18:05;22.60;99.90
39919;DHT22;25589;51.552;13.424;2023-07-31T13:20:30;22.60;99.90
39919;DHT22;25589;51.552;13.424;2023-07-31T13:22:57;22.60;99.90
39919;DHT22;25589;51.552;13.424;2023-07-31T13:25:22;22.60;99.90
39919;DHT22;25589;51.552;13.424;2023-07-31T13:27:48;22.60;99.90
39919;DHT22;25589;51.552;13.424;2023-07-31T13:30:13;22.60;99.90
39919;DHT22;25589;51.552;13.424;2023-07-31T13:32:39;22.50;99.90
39919;DHT22;25589;51.552;13.424;2023-07-31T13:35:06;22.60;99.90
39919;DHT22;25589;51.552;13.424;2023-07-31T13:37:31;22.60;99.90
39919;DHT22;25589;51.552;13.424;2023-07-31T13:39:57;22.60;99.90
39919;DHT22;25589;51.552;13.424;2023-07-31T13:42:24;22.70;99.90
39919;DHT22;25589;51.552;13.424;2023-07-31T13:44:49;22.70;99.90
39919;DHT22;25589;51.552;13.424;2023-07-31T13:47:15;22.80;99.90
39919;DHT22;25589;51.552;13.424;2023-07-31T13:49:40;22.70;99.90
39919;DHT22;25589;51.552;13.424;2023-07-31T13:52:07;22.60;99.90
39919;DHT22;25589;51.552;13.424;2023-07-31T13:54:32;22.50;99.90
39919;DHT22;25589;51.552;13.424;2023-07-31T13:56:58;22.50;99.90
39919;DHT22;25589;51.552;13.424;2023-07-31T13:59:23;22.50;99.90
39919;DHT22;25589;51.552;13.424;2023-07-31T14:01:50;22.50;99.90
39919;DHT22;25589;51.552;13.424;2023-07-31T14:04:15;22.30;99.90
39919;DHT22;25589;51.552;13.424;2023-07-31T14:06:41;22.30;99.90
39919;DHT22;25589;51.552;13.424;2023-07-31T14:09:06;22.30;99.90
39919;DHT22;25589;51.552;13.424;2023-07-31T14:11:32;22.50;99.90
39919;DHT22;25589;51.552;13.424;2023-07-31T14:13:58;22.60;99.90
39919;DHT22;25589;51.552;13.424;2023-07-31T14:16:23;22.70;99.90
39919;DHT22;25589;51.552;13.424;2023-07-31T14:18:49;23.10;99.90
39919;DHT22;25589;51.552;13.424;2023-07-31T14:21:15;23.30;99.90
39919;DHT22;25589;51.552;13.424;2023-07-31T14:23:41;23.50;99.90
39919;DHT22;25589;51.552;13.424;2023-07-31T14:26:06;23.90;99.90
39919;DHT22;25589;51.552;13.424;2023-07-31T14:28:32;24.30;99.90
39919;DHT22;25589;51.552;13.424;2023-07-31T14:30:58;24.30;99.90
39919;DHT22;25589;51.552;13.424;2023-07-31T14:33:23;24.20;99.90
39919;DHT22;25589;51.552;13.424;2023-07-31T14:35:49;24.00;99.90
39919;DHT22;25589;51.552;13.424;2023-07-31T14:38:14;23.90;99.90
39919;DHT22;25589;51.552;13.424;2023-07-31T14:40:40;23.70;99.90
39919;DHT22;25589;51.552;13.424;2023-07-31T14:43:06;23.70;99.90
39919;DHT22;25589;51.552;13.424;2023-07-31T14:45:31;23.50;99.90
39919;DHT22;25589;51.552;13.424;2023-07-31T14:47:57;23.50;99.90
39919;DHT22;25589;51.552;13.424;2023-07-31T14:50:22;23.50;99.90
39919;DHT22;25589;51.552;13.424;2023-07-31T14:52:48;23.40;99.90
39919;DHT22;25589;51.552;13.424;2023-07-31T14:55:14;23.40;99.90
39919;DHT22;25589;51.552;13.424;2023-07-31T14:57:40;23.50;99.90
39919;DHT22;25589;51.552;13.424;2023-07-31T15:00:06;23.50;99.90
39919;DHT22;25589;51.552;13.424;2023-07-31T15:02:34;23.40;99.90
39919;DHT22;25589;51.552;13.424;2023-07-31T15:05:00;23.30;99.90
39919;DHT22;25589;51.552;13.424;2023-07-31T15:07:25;23.30;99.90
39919;DHT22;25589;51.552;13.424;2023-07-31T15:09:51;23.20;99.90
39919;DHT22;25589;51.552;13.424;2023-07-31T15:12:17;23.10;99.90
39919;DHT22;25589;51.552;13.424;2023-07-31T15:14:42;23.00;99.90
39919;DHT22;25589;51.552;13.424;2023-07-31T15:17:08;23.00;99.90
39919;DHT22;25589;51.552;13.424;2023-07-31T15:19:33;22.90;99.90
39919;DHT22;25589;51.552;13.424;2023-07-31T15:22:03;22.90;99.90
39919;DHT22;25589;51.552;13.424;2023-07-31T15:24:29;22.80;99.90
39919;DHT22;25589;51.552;13.424;2023-07-31T15:26:54;22.70;99.90